Time;durP1;ratioP1;P1;durP2;ratioP2;P2;SDS_P1;SDS_P2;PMS_P1;PMS_P2;Temp;Humidity;BMP_temperature;BMP_pressure;BME280_temperature;BME280_humidity;BME280_pressure;Samples;Min_cycle;Max_cycle;Signal;HPM_P1;HPM_P2
2023/11/16 00:00:47;;;;;;;22.65;8.98;;;16.10;91.80;;;;;;5012210;28;20117;-74
2023/11/16 00:03:13;;;;;;;21.45;8.18;;;16.10;91.80;;;;;;5012332;28;20068;-74
2023/11/16 00:05:42;;;;;;;21.27;8.32;;;16.00;91.80;;;;;;5012588;28;20097;-74
2023/11/16 00:08:10;;;;;;;23.85;8.38;;;16.00;91.80;;;;;;5012424;28;20049;-74
2023/11/16 00:10:36;;;;;;;20.55;8.85;;;16.00;91.90;;;;;;5012275;28;20049;-75
2023/11/16 00:13:02;;;;;;;23.60;8.52;;;16.00;92.00;;;;;;5012139;28;20026;-73
2023/11/16 00:15:31;;;;;;;16.63;7.78;;;15.90;92.00;;;;;;5012081;28;20116;-74
2023/11/16 00:17:57;;;;;;;23.15;8.90;;;15.90;92.00;;;;;;5011922;28;20037;-74
2023/11/16 00:20:23;;;;;;;22.58;8.18;;;15.90;92.00;;;;;;5011980;28;20392;-74
2023/11/16 00:22:49;;;;;;;21.58;7.88;;;15.90;92.10;;;;;;5011822;28;20066;-75
2023/11/16 00:25:16;;;;;;;24.25;9.23;;;15.90;92.10;;;;;;5011991;28;20054;-74
2023/11/16 00:27:43;;;;;;;24.88;9.18;;;15.90;92.10;;;;;;5012152;28;20033;-75
2023/11/16 00:30:09;;;;;;;21.63;8.57;;;15.90;92.10;;;;;;5013156;28;20104;-74
2023/11/16 00:32:35;;;;;;;23.58;8.52;;;15.90;92.00;;;;;;4978130;28;20129;-73
2023/11/16 00:35:01;;;;;;;23.55;7.95;;;15.80;92.20;;;;;;4992306;28;20089;-73
2023/11/16 00:37:26;;;;;;;23.38;8.10;;;15.80;92.20;;;;;;5005517;28;20073;-73
2023/11/16 00:39:56;;;;;;;20.23;9.23;;;15.80;92.20;;;;;;5011861;28;20455;-73
2023/11/16 00:42:23;;;;;;;22.95;9.50;;;15.80;92.30;;;;;;5011743;28;20055;-74
2023/11/16 00:44:49;;;;;;;24.23;9.27;;;15.70;92.50;;;;;;5005656;28;20058;-74
2023/11/16 00:47:18;;;;;;;27.95;9.98;;;15.70;92.30;;;;;;5000898;28;20092;-74
2023/11/16 00:49:45;;;;;;;26.58;10.00;;;15.70;92.30;;;;;;5011699;28;20085;-74
2023/11/16 00:52:11;;;;;;;25.15;8.55;;;15.60;92.40;;;;;;5011698;28;20401;-74
2023/11/16 00:54:37;;;;;;;25.80;9.05;;;15.70;92.40;;;;;;5011505;28;20034;-75
2023/11/16 00:57:03;;;;;;;22.85;8.88;;;15.60;92.40;;;;;;5011605;28;20034;-73
2023/11/16 00:59:30;;;;;;;24.27;8.43;;;15.60;92.40;;;;;;5011256;28;20026;-73
2023/11/16 01:01:58;;;;;;;23.13;8.68;;;15.50;92.40;;;;;;5012914;28;20088;-73
2023/11/16 01:04:25;;;;;;;18.95;8.00;;;15.50;92.50;;;;;;5014998;28;20212;-73
2023/11/16 01:06:51;;;;;;;22.63;9.32;;;15.50;92.50;;;;;;5014846;28;20218;-74
2023/11/16 01:09:16;;;;;;;23.65;8.50;;;15.50;92.50;;;;;;5015033;28;20581;-74
2023/11/16 01:11:43;;;;;;;25.52;8.75;;;15.50;92.50;;;;;;5014958;28;20038;-73
2023/11/16 01:14:09;;;;;;;20.48;8.98;;;15.50;92.50;;;;;;5014985;28;20067;-73
2023/11/16 01:16:41;;;;;;;28.13;9.82;;;15.40;92.60;;;;;;5014944;28;20030;-73
2023/11/16 01:19:13;;;;;;;27.95;9.85;;;15.40;92.60;;;;;;5014658;28;20037;-73
2023/11/16 01:21:50;;;;;;;30.88;10.93;;;15.30;92.60;;;;;;5014948;28;20080;-73
2023/11/16 01:24:18;;;;;;;24.67;10.10;;;15.30;92.50;;;;;;5015129;28;20120;-73
2023/11/16 01:26:43;;;;;;;27.83;10.95;;;15.30;92.70;;;;;;4997070;28;20048;-73
2023/11/16 01:29:10;;;;;;;24.42;10.95;;;15.30;92.70;;;;;;5014640;28;20064;-73
2023/11/16 01:31:39;;;;;;;28.00;11.10;;;15.20;92.80;;;;;;5014537;28;20064;-73
2023/11/16 01:34:09;;;;;;;23.40;11.55;;;15.20;92.90;;;;;;5014861;28;20038;-73
2023/11/16 01:36:36;;;;;;;28.55;12.38;;;15.20;93.00;;;;;;5014728;28;20030;-74
2023/11/16 01:39:02;;;;;;;29.65;11.65;;;15.20;93.00;;;;;;5014829;28;20422;-73
2023/11/16 01:41:28;;;;;;;25.63;11.40;;;15.10;93.10;;;;;;5014653;28;20026;-73
2023/11/16 01:43:56;;;;;;;23.10;11.45;;;15.10;93.10;;;;;;5014524;28;20088;-73
2023/11/16 01:46:26;;;;;;;24.10;11.60;;;15.10;93.10;;;;;;5014162;28;20128;-74
2023/11/16 01:48:54;;;;;;;24.60;10.80;;;15.10;93.30;;;;;;5014435;28;20398;-73
2023/11/16 01:51:21;;;;;;;32.33;12.30;;;15.00;93.30;;;;;;5014404;28;20532;-73
2023/11/16 01:53:52;;;;;;;18.52;10.57;;;15.00;93.30;;;;;;5014191;28;20030;-72
2023/11/16 01:56:19;;;;;;;28.00;11.90;;;15.00;93.30;;;;;;5014103;28;20030;-73
2023/11/16 01:58:49;;;;;;;18.42;10.65;;;15.00;93.30;;;;;;5013792;28;20092;-74
2023/11/16 02:01:16;;;;;;;21.42;11.13;;;15.00;93.30;;;;;;4996483;28;20505;-73
2023/11/16 02:03:43;;;;;;;26.48;11.45;;;15.00;93.30;;;;;;5013954;28;20029;-73
2023/11/16 02:06:09;;;;;;;25.33;12.05;;;15.00;93.30;;;;;;5013785;28;20367;-73
2023/11/16 02:08:36;;;;;;;29.00;12.95;;;15.10;93.30;;;;;;5013983;28;20449;-73
2023/11/16 02:11:02;;;;;;;57.83;14.98;;;15.00;93.30;;;;;;5013821;28;20034;-74
2023/11/16 02:13:27;;;;;;;43.75;14.65;;;15.00;93.30;;;;;;5014147;28;20109;-74
2023/11/16 02:15:57;;;;;;;26.33;14.52;;;14.90;93.40;;;;;;5013943;28;20069;-73
2023/11/16 02:18:25;;;;;;;31.88;14.55;;;14.90;93.50;;;;;;5014218;28;20026;-73
2023/11/16 02:20:55;;;;;;;27.20;14.20;;;14.90;93.70;;;;;;5013939;28;20034;-74
2023/11/16 02:23:21;;;;;;;25.70;13.63;;;14.90;93.80;;;;;;5013744;28;20069;-73
2023/11/16 02:25:51;;;;;;;27.38;13.98;;;14.80;93.80;;;;;;5013630;28;20387;-73
2023/11/16 02:28:20;;;;;;;24.42;12.95;;;14.80;93.90;;;;;;5013142;28;20065;-74
2023/11/16 02:30:46;;;;;;;24.90;12.73;;;14.70;93.90;;;;;;5013198;28;20054;-74
2023/11/16 02:33:12;;;;;;;24.40;12.50;;;14.70;94.10;;;;;;4979417;28;20044;-73
2023/11/16 02:35:38;;;;;;;23.70;11.55;;;14.60;94.20;;;;;;5013280;28;20030;-74
2023/11/16 02:38:06;;;;;;;28.30;12.30;;;14.60;94.10;;;;;;5013273;28;20033;-74
2023/11/16 02:40:32;;;;;;;23.02;11.23;;;14.60;94.30;;;;;;5013266;28;20034;-74
2023/11/16 02:42:58;;;;;;;21.23;10.13;;;14.60;94.20;;;;;;5012967;28;20034;-73
2023/11/16 02:45:26;;;;;;;25.70;11.70;;;14.50;94.30;;;;;;5013004;28;20512;-73
2023/11/16 02:47:53;;;;;;;21.42;10.68;;;14.50;94.30;;;;;;5013042;28;20478;-73
2023/11/16 02:50:22;;;;;;;26.30;11.77;;;14.40;94.30;;;;;;5013090;28;20470;-72
2023/11/16 02:52:52;;;;;;;19.85;10.77;;;14.40;94.30;;;;;;5013121;28;20041;-73
2023/11/16 02:55:24;;;;;;;19.85;10.13;;;14.30;94.30;;;;;;4995284;28;20075;-75
2023/11/16 02:57:51;;;;;;;22.45;11.15;;;14.30;94.30;;;;;;5012716;28;20056;-73
2023/11/16 03:00:17;;;;;;;18.13;9.77;;;14.20;94.30;;;;;;5013195;28;20115;-73
2023/11/16 03:02:44;;;;;;;19.95;10.27;;;14.20;94.30;;;;;;5013251;28;20036;-72
2023/11/16 03:05:14;;;;;;;20.55;9.45;;;14.20;94.30;;;;;;5013092;28;20038;-73
2023/11/16 03:07:40;;;;;;;20.35;9.98;;;14.30;94.30;;;;;;5012961;28;20061;-73
2023/11/16 03:10:11;;;;;;;18.40;9.65;;;14.30;94.30;;;;;;5012942;28;20070;-74
2023/11/16 03:12:37;;;;;;;18.10;10.00;;;14.30;94.20;;;;;;5012655;28;20120;-74
2023/11/16 03:15:05;;;;;;;17.92;9.13;;;14.30;94.10;;;;;;5013023;28;20420;-73
2023/11/16 03:17:36;;;;;;;16.90;8.52;;;14.30;94.10;;;;;;5012953;28;20038;-73
2023/11/16 03:20:03;;;;;;;22.90;9.23;;;14.20;94.10;;;;;;4994697;28;20371;-72
2023/11/16 03:22:29;;;;;;;16.38;8.35;;;14.20;94.00;;;;;;5012610;28;20040;-74
2023/11/16 03:24:55;;;;;;;18.23;8.82;;;14.20;93.90;;;;;;5011656;28;20176;-73
2023/11/16 03:27:21;;;;;;;16.70;8.32;;;14.20;94.10;;;;;;5012874;28;20026;-72
2023/11/16 03:29:48;;;;;;;16.95;7.78;;;14.20;93.80;;;;;;5012499;28;20473;-74
2023/11/16 03:32:14;;;;;;;17.25;8.13;;;14.20;93.70;;;;;;5012204;28;20056;-73
2023/11/16 03:34:40;;;;;;;17.88;8.05;;;14.20;93.60;;;;;;4995026;28;20042;-73
2023/11/16 03:37:06;;;;;;;15.85;7.80;;;14.20;93.60;;;;;;5012208;28;20088;-73
2023/11/16 03:39:32;;;;;;;20.73;8.60;;;14.20;93.50;;;;;;5012401;28;20056;-72
2023/11/16 03:42:01;;;;;;;18.33;7.88;;;14.10;93.50;;;;;;5012539;28;20111;-73
2023/11/16 03:44:27;;;;;;;16.48;8.23;;;14.20;93.60;;;;;;5012562;28;20502;-73
2023/11/16 03:46:56;;;;;;;17.90;7.68;;;14.20;93.50;;;;;;5012212;28;20044;-73
2023/11/16 03:49:23;;;;;;;19.42;7.63;;;14.20;93.50;;;;;;5012327;28;20113;-73
2023/11/16 03:51:52;;;;;;;15.63;7.22;;;14.20;93.40;;;;;;5012100;28;20037;-73
2023/11/16 03:54:18;;;;;;;16.50;7.15;;;14.10;93.40;;;;;;5012152;28;20034;-73
2023/11/16 03:56:44;;;;;;;20.50;6.85;;;14.10;93.50;;;;;;5012298;28;20037;-73
2023/11/16 03:59:13;;;;;;;16.42;7.40;;;14.10;93.50;;;;;;5012308;28;20034;-73
2023/11/16 04:01:39;;;;;;;20.33;7.50;;;14.00;93.50;;;;;;5012367;28;20494;-73
2023/11/16 04:04:10;;;;;;;19.38;6.95;;;14.00;93.60;;;;;;5011854;28;20096;-73
2023/11/16 04:06:40;;;;;;;26.73;7.28;;;14.00;93.60;;;;;;5012275;28;20080;-73
2023/11/16 04:09:06;;;;;;;18.55;6.82;;;14.00;93.60;;;;;;4994180;28;20038;-73
2023/11/16 04:11:33;;;;;;;19.15;6.47;;;13.90;93.60;;;;;;5011974;28;20084;-74
2023/11/16 04:13:59;;;;;;;15.85;6.30;;;13.90;93.60;;;;;;5011808;28;20033;-73
2023/11/16 04:16:25;;;;;;;20.38;6.70;;;13.90;93.60;;;;;;5012379;28;20042;-73
2023/11/16 04:18:55;;;;;;;17.38;6.75;;;13.90;93.60;;;;;;5012130;28;20041;-73
2023/11/16 04:21:21;;;;;;;18.80;6.50;;;13.90;93.60;;;;;;5012087;28;20034;-73
2023/11/16 04:23:58;;;;;;;18.15;6.65;;;13.90;93.50;;;;;;5011866;28;20034;-73
2023/11/16 04:26:36;;;;;;;13.70;6.03;;;13.90;93.50;;;;;;5012072;28;20394;-73
2023/11/16 22:29:12;;;;;;;17.88;5.70;;;17.40;88.50;;;;;;5058293;22;20101;-75
2023/11/16 22:31:37;;;;;;;15.23;4.55;;;17.40;88.20;;;;;;5072585;28;20036;-74
2023/11/16 22:34:03;;;;;;;19.45;4.50;;;17.40;88.20;;;;;;5071825;28;20037;-72
2023/11/16 22:36:29;;;;;;;20.45;5.00;;;17.50;88.40;;;;;;5072921;28;20025;-76
2023/11/16 22:38:55;;;;;;;17.98;4.75;;;17.50;88.30;;;;;;5073563;28;20039;-77
2023/11/16 22:41:21;;;;;;;18.95;5.15;;;17.50;88.20;;;;;;5073288;28;20529;-76
2023/11/16 22:43:47;;;;;;;19.50;4.75;;;17.50;88.40;;;;;;5073683;28;20102;-76
2023/11/16 22:46:13;;;;;;;20.85;5.55;;;17.50;88.30;;;;;;5073360;28;20041;-78
2023/11/16 22:48:39;;;;;;;18.92;5.75;;;17.50;88.50;;;;;;5074014;28;20033;-75
2023/11/16 22:51:08;;;;;;;17.25;5.45;;;17.50;88.50;;;;;;5073498;28;20039;-76
2023/11/16 22:53:34;;;;;;;16.98;5.00;;;17.60;88.90;;;;;;5073037;28;20108;-75
2023/11/16 22:56:00;;;;;;;17.70;4.50;;;17.60;88.80;;;;;;5054887;28;20337;-75
2023/11/16 22:58:26;;;;;;;17.63;5.15;;;17.60;88.80;;;;;;5073123;28;20089;-76
2023/11/16 23:00:52;;;;;;;21.15;4.97;;;17.60;88.70;;;;;;5072721;28;20491;-76
2023/11/16 23:03:18;;;;;;;16.90;4.57;;;17.60;88.80;;;;;;5072778;28;20059;-75
2023/11/16 23:05:45;;;;;;;15.88;4.40;;;17.60;89.00;;;;;;5072305;28;20036;-75
2023/11/16 23:08:12;;;;;;;17.25;5.13;;;17.70;89.10;;;;;;5072218;28;20047;-74
2023/11/16 23:10:39;;;;;;;14.20;4.38;;;17.70;89.30;;;;;;5072401;28;20059;-74
2023/11/16 23:13:09;;;;;;;14.18;4.60;;;17.70;89.40;;;;;;5072416;28;20032;-74
2023/11/16 23:15:38;;;;;;;15.77;4.90;;;17.70;89.40;;;;;;5072553;28;20025;-75
2023/11/16 23:18:07;;;;;;;23.25;5.40;;;17.70;89.50;;;;;;5072355;28;20090;-75
2023/11/16 23:20:34;;;;;;;20.25;5.70;;;17.70;89.80;;;;;;5072496;28;20119;-76
2023/11/16 23:23:01;;;;;;;17.55;4.85;;;17.70;90.00;;;;;;5071946;28;20041;-75
2023/11/16 23:25:30;;;;;;;16.98;5.50;;;17.70;90.00;;;;;;5072639;28;20053;-75
2023/11/16 23:27:58;;;;;;;16.48;4.57;;;17.70;90.10;;;;;;5072519;28;20106;-74
2023/11/16 23:30:24;;;;;;;16.45;4.50;;;17.70;90.20;;;;;;5072270;28;20142;-75
2023/11/16 23:32:50;;;;;;;17.02;4.78;;;17.70;90.30;;;;;;5072128;28;20051;-73
2023/11/16 23:35:16;;;;;;;17.40;4.32;;;17.70;90.50;;;;;;5072380;28;20123;-75
2023/11/16 23:37:41;;;;;;;17.10;4.53;;;17.70;90.60;;;;;;5054016;28;20039;-74
2023/11/16 23:40:11;;;;;;;19.13;4.35;;;17.70;90.70;;;;;;5071946;28;20033;-76
2023/11/16 23:42:39;;;;;;;14.25;4.25;;;17.70;90.90;;;;;;5072068;28;20087;-75
2023/11/16 23:45:07;;;;;;;15.45;4.78;;;17.70;91.10;;;;;;5071939;28;20036;-75
2023/11/16 23:47:33;;;;;;;19.30;4.97;;;17.70;91.20;;;;;;5070536;28;20051;-74
2023/11/16 23:49:59;;;;;;;14.93;4.75;;;17.70;91.40;;;;;;5071786;28;20032;-74
2023/11/16 23:52:25;;;;;;;15.07;4.60;;;17.70;91.40;;;;;;5071854;28;20081;-75
2023/11/16 23:54:51;;;;;;;23.98;4.82;;;17.80;91.60;;;;;;5071921;28;20399;-76
2023/11/16 23:57:16;;;;;;;17.77;4.90;;;17.80;91.80;;;;;;5071705;28;20037;-75
2023/11/16 23:59:42;;;;;;;16.67;4.72;;;17.80;91.80;;;;;;5071974;28;20036;-75
